Time;durP1;ratioP1;P1;durP2;ratioP2;P2;SDS_P1;SDS_P2;PMS_P1;PMS_P2;Temp;Humidity;BMP_temperature;BMP_pressure;BME280_temperature;BME280_humidity;BME280_pressure;Samples;Min_cycle;Max_cycle;Signal;HPM_P1;HPM_P2
2022/05/19 00:01:04;;;;;;;9.53;5.70;;;17.30;71.60;;;;;;5095458;28;20455;-85
2022/05/19 00:03:35;;;;;;;8.83;6.10;;;17.30;74.70;;;;;;5096188;28;20445;-86
2022/05/19 00:06:03;;;;;;;8.10;5.23;;;17.10;77.50;;;;;;5096059;28;20533;-84
2022/05/19 00:08:31;;;;;;;11.00;5.63;;;17.00;80.60;;;;;;5095868;28;20487;-84
2022/05/19 00:11:01;;;;;;;7.43;5.00;;;17.00;81.50;;;;;;5096102;28;20499;-84
2022/05/19 00:13:37;;;;;;;10.10;6.60;;;16.90;82.20;;;;;;5096257;28;20833;-83
2022/05/19 00:16:06;;;;;;;7.53;5.40;;;16.80;83.20;;;;;;5084376;28;20511;-84
2022/05/19 00:18:33;;;;;;;8.53;6.07;;;16.80;84.00;;;;;;5075335;28;20514;-83
2022/05/19 00:21:00;;;;;;;8.87;6.93;;;16.70;86.00;;;;;;5092524;28;20459;-84
2022/05/19 00:23:29;;;;;;;8.73;6.40;;;16.60;86.20;;;;;;5096057;28;20510;-84
2022/05/19 00:25:58;;;;;;;7.70;6.40;;;16.60;87.20;;;;;;5095947;28;20480;-86
2022/05/19 00:28:39;;;;;;;7.20;6.03;;;16.30;89.70;;;;;;5095773;28;20896;-84
2022/05/19 00:31:08;;;;;;;9.50;7.73;;;16.40;90.90;;;;;;5095866;28;20443;-86
2022/05/19 00:33:36;;;;;;;13.63;7.50;;;16.50;92.20;;;;;;5096215;28;20456;-84
2022/05/19 00:36:08;;;;;;;10.50;9.30;;;16.20;92.40;;;;;;5095354;28;21049;-84
2022/05/19 00:38:38;;;;;;;8.93;7.90;;;16.20;93.10;;;;;;5095008;28;20456;-84
2022/05/19 00:41:06;;;;;;;8.40;7.60;;;16.20;92.80;;;;;;5095624;28;20951;-83
2022/05/19 00:43:42;;;;;;;11.33;8.90;;;16.20;93.60;;;;;;5095618;28;20461;-84
2022/05/19 00:46:19;;;;;;;10.37;9.13;;;16.20;93.80;;;;;;5095470;28;20627;-84
2022/05/19 00:48:53;;;;;;;8.97;8.17;;;16.20;93.50;;;;;;5095521;28;20505;-83
2022/05/19 00:51:25;;;;;;;8.23;6.87;;;16.10;93.80;;;;;;5095549;28;20453;-84
2022/05/19 00:53:55;;;;;;;8.73;6.90;;;16.20;93.50;;;;;;5096017;28;20464;-84
2022/05/19 00:56:26;;;;;;;7.83;6.93;;;16.10;93.50;;;;;;5095557;28;20501;-86
2022/05/19 00:59:03;;;;;;;10.70;9.63;;;15.90;93.40;;;;;;5094888;28;21064;-84
2022/05/19 01:01:32;;;;;;;14.40;13.30;;;15.90;94.40;;;;;;5095695;28;20457;-84
2022/05/19 01:04:06;;;;;;;19.37;18.13;;;15.90;96.30;;;;;;5095146;28;21000;-84
2022/05/19 01:06:36;;;;;;;14.73;13.53;;;16.00;96.60;;;;;;5095880;28;20611;-83
2022/05/19 01:09:07;;;;;;;13.97;12.87;;;16.20;95.30;;;;;;5096049;28;20508;-84
2022/05/19 01:11:36;;;;;;;12.80;11.67;;;16.30;94.70;;;;;;5096071;28;20502;-84
2022/05/19 01:14:03;;;;;;;11.87;10.77;;;16.30;94.80;;;;;;5095541;28;20483;-87
2022/05/19 01:16:32;;;;;;;10.20;9.30;;;16.20;94.90;;;;;;5095532;28;20469;-83
2022/05/19 01:19:01;;;;;;;12.80;11.70;;;16.20;95.20;;;;;;5094772;28;20657;-86
2022/05/19 01:21:30;;;;;;;12.07;10.97;;;16.00;96.10;;;;;;5095636;28;20542;-84
2022/05/19 01:24:09;;;;;;;15.70;14.60;;;15.90;95.90;;;;;;5095062;28;20721;-84
2022/05/19 01:26:53;;;;;;;15.10;13.80;;;16.00;96.80;;;;;;5095090;28;20481;-84
2022/05/19 01:29:23;;;;;;;14.83;13.60;;;16.10;96.90;;;;;;5094399;28;20487;-84
2022/05/19 01:31:53;;;;;;;13.23;12.03;;;16.00;96.80;;;;;;5095298;28;20890;-84
2022/05/19 01:34:22;;;;;;;13.37;12.27;;;16.30;95.90;;;;;;5095204;28;20966;-85
2022/05/19 01:36:49;;;;;;;13.03;12.13;;;16.50;95.70;;;;;;5095317;28;20473;-84
2022/05/19 01:39:21;;;;;;;11.60;10.50;;;16.20;95.50;;;;;;5094036;28;20955;-84
2022/05/19 01:42:04;;;;;;;8.83;6.30;;;16.60;94.60;;;;;;5095494;28;20909;-86
2022/05/19 01:44:45;;;;;;;8.10;7.30;;;16.30;91.70;;;;;;5097036;28;20450;-84
2022/05/19 01:47:19;;;;;;;13.00;11.87;;;16.10;93.00;;;;;;5117885;22;20994;-80
2022/05/19 01:49:52;;;;;;;12.47;11.47;;;15.90;94.50;;;;;;5092454;28;20448;-80
2022/05/19 01:52:25;;;;;;;18.00;16.80;;;15.80;95.60;;;;;;5093053;28;20442;-80
2022/05/19 01:54:58;;;;;;;24.97;23.53;;;15.80;96.70;;;;;;5092712;28;20434;-81
2022/05/19 01:57:29;;;;;;;22.83;21.43;;;15.90;98.00;;;;;;5093309;28;20474;-80
2022/05/19 02:00:02;;;;;;;21.60;20.40;;;16.00;98.20;;;;;;5092193;28;20452;-80
2022/05/19 02:02:37;;;;;;;25.17;23.37;;;15.90;98.20;;;;;;5092721;28;20452;-80
2022/05/19 02:05:11;;;;;;;25.63;24.13;;;15.90;98.10;;;;;;5092651;28;20446;-80
2022/05/19 02:07:41;;;;;;;26.23;24.30;;;16.00;98.10;;;;;;5092967;28;20473;-81
2022/05/19 02:10:13;;;;;;;16.57;15.37;;;16.00;98.00;;;;;;5091891;28;20855;-80
2022/05/19 02:12:42;;;;;;;19.97;18.70;;;16.20;97.80;;;;;;5092283;28;20451;-80
2022/05/19 02:15:13;;;;;;;14.27;13.10;;;16.30;96.90;;;;;;5092595;28;20450;-80
2022/05/19 02:17:42;;;;;;;13.27;12.20;;;16.30;96.20;;;;;;5072797;28;20512;-80
2022/05/19 02:20:12;;;;;;;14.40;13.20;;;16.40;96.00;;;;;;5071862;28;20454;-80
2022/05/19 02:22:40;;;;;;;12.40;11.40;;;16.20;95.70;;;;;;5072541;28;20457;-80
2022/05/19 02:25:13;;;;;;;11.90;10.87;;;16.30;95.70;;;;;;5072329;28;20459;-80
2022/05/19 02:27:46;;;;;;;10.70;9.60;;;16.20;95.20;;;;;;5092110;28;20474;-80
2022/05/19 02:30:16;;;;;;;13.30;12.30;;;16.10;95.60;;;;;;5091726;28;20454;-80
2022/05/19 02:32:43;;;;;;;16.27;14.97;;;16.00;97.10;;;;;;5092622;28;20979;-84
2022/05/19 02:35:11;;;;;;;17.37;16.07;;;15.80;97.20;;;;;;5092530;28;20526;-82
2022/05/19 02:37:38;;;;;;;16.73;15.63;;;15.70;98.00;;;;;;5090962;28;20481;-82
2022/05/19 02:40:06;;;;;;;18.47;17.10;;;15.70;98.10;;;;;;5092307;28;20469;-82
2022/05/19 02:42:33;;;;;;;16.30;15.20;;;15.60;97.90;;;;;;5097097;28;20445;-82
2022/05/19 02:45:01;;;;;;;21.17;19.87;;;15.60;98.10;;;;;;5082306;28;20485;-82
2022/05/19 02:47:28;;;;;;;34.90;32.80;;;15.50;99.00;;;;;;5075129;28;20487;-82
2022/05/19 02:49:55;;;;;;;56.20;53.30;;;15.40;99.90;;;;;;5075157;28;20461;-82
2022/05/19 02:52:21;;;;;;;54.20;51.80;;;15.50;99.90;;;;;;5092516;28;21001;-84
2022/05/19 02:54:48;;;;;;;61.03;58.53;;;15.50;99.90;;;;;;5106324;28;20456;-83
2022/05/19 02:57:15;;;;;;;61.83;58.93;;;15.50;99.90;;;;;;5107099;28;20474;-82
2022/05/19 02:59:42;;;;;;;53.47;50.87;;;15.40;99.90;;;;;;5105739;28;20468;-80
2022/05/19 03:02:11;;;;;;;62.60;59.87;;;15.40;99.90;;;;;;5105088;28;20442;-81
2022/05/19 03:04:37;;;;;;;83.97;80.57;;;15.30;99.90;;;;;;5105424;28;20457;-80
2022/05/19 03:07:05;;;;;;;72.40;69.30;;;15.20;99.90;;;;;;5105086;28;20986;-82
2022/05/19 03:09:32;;;;;;;81.10;77.70;;;15.20;99.90;;;;;;5102402;28;20457;-80
2022/05/19 03:11:58;;;;;;;105.23;101.27;;;15.20;99.90;;;;;;5105521;28;20454;-81
2022/05/19 03:14:25;;;;;;;94.07;90.37;;;15.20;99.90;;;;;;5104780;28;20445;-81
2022/05/19 03:16:52;;;;;;;118.47;113.87;;;15.10;99.90;;;;;;5104207;28;20461;-83
2022/05/19 03:19:21;;;;;;;110.73;106.73;;;15.10;99.90;;;;;;5104545;28;20977;-81
2022/05/19 03:21:48;;;;;;;135.20;130.23;;;15.00;99.90;;;;;;5104984;28;20476;-83
2022/05/19 03:24:15;;;;;;;143.40;137.93;;;15.00;99.90;;;;;;5107969;28;20484;-81
2022/05/19 03:26:41;;;;;;;142.80;137.57;;;15.00;99.90;;;;;;5108373;28;20542;-80
2022/05/19 03:29:08;;;;;;;152.97;147.43;;;15.00;99.90;;;;;;5103126;28;20461;-81
2022/05/19 03:31:35;;;;;;;136.03;130.93;;;15.00;99.90;;;;;;5104239;28;20941;-81
2022/05/19 03:34:03;;;;;;;141.90;136.30;;;15.10;99.90;;;;;;5104050;28;20446;-81
2022/05/19 03:36:31;;;;;;;110.00;105.73;;;15.10;99.90;;;;;;5105109;28;20538;-82
2022/05/19 03:38:58;;;;;;;94.63;91.00;;;15.30;99.90;;;;;;5104752;28;20445;-80
2022/05/19 03:41:25;;;;;;;83.97;80.47;;;15.30;99.90;;;;;;5104840;28;20446;-82
2022/05/19 03:43:52;;;;;;;65.60;62.80;;;15.50;99.90;;;;;;5104430;28;20449;-82
2022/05/19 03:46:19;;;;;;;58.10;55.47;;;15.50;99.90;;;;;;5105182;28;20485;-81
2022/05/19 03:48:47;;;;;;;51.27;49.07;;;15.60;99.90;;;;;;5105037;28;20495;-81
2022/05/19 03:51:21;;;;;;;46.57;43.93;;;15.80;99.90;;;;;;5104486;28;20454;-82
2022/05/19 03:53:50;;;;;;;45.60;43.40;;;15.80;99.90;;;;;;5104839;28;20438;-82
2022/05/19 03:56:17;;;;;;;33.80;31.93;;;15.90;99.90;;;;;;5107995;28;20462;-81
2022/05/19 03:58:44;;;;;;;35.40;32.93;;;15.90;99.90;;;;;;5097367;28;20991;-81
2022/05/19 04:01:11;;;;;;;29.10;27.20;;;15.90;99.90;;;;;;5095920;28;20458;-79
2022/05/19 04:03:38;;;;;;;33.40;31.60;;;16.00;99.90;;;;;;5094351;28;20459;-78
2022/05/19 04:06:05;;;;;;;31.50;29.90;;;16.10;99.90;;;;;;5093935;28;20475;-80
2022/05/19 04:08:32;;;;;;;34.57;32.67;;;16.10;99.90;;;;;;5090430;28;20455;-78
2022/05/19 04:11:00;;;;;;;34.90;32.80;;;16.00;99.90;;;;;;5094644;28;20459;-79
2022/05/19 04:13:29;;;;;;;38.07;36.17;;;16.10;99.90;;;;;;5094165;28;20450;-82
2022/05/19 04:22:06;;;;;;;41.57;39.53;;;16.10;99.90;;;;;;5040924;28;20442;-82
2022/05/19 04:45:14;;;;;;;10.13;9.23;;;17.10;97.10;;;;;;5054887;28;20948;-82
2022/05/19 04:50:56;;;;;;;12.50;7.13;;;17.70;94.10;;;;;;5399106;22;21066;-83
2022/05/19 04:53:45;;;;;;;6.83;5.37;;;17.70;92.00;;;;;;5080314;28;20427;-82
2022/05/19 04:56:14;;;;;;;7.83;5.47;;;17.80;90.80;;;;;;5084140;28;20447;-87
2022/05/19 04:58:47;;;;;;;6.57;5.00;;;17.90;90.20;;;;;;5105019;28;20452;-83
2022/05/19 05:01:16;;;;;;;8.53;5.00;;;17.90;89.50;;;;;;5096505;28;20992;-83
2022/05/19 05:03:43;;;;;;;7.47;5.17;;;18.00;86.10;;;;;;5095320;28;20537;-81
2022/05/19 05:06:16;;;;;;;9.00;5.57;;;18.10;84.30;;;;;;5095789;28;20493;-83
2022/05/19 05:08:49;;;;;;;6.53;4.67;;;18.30;83.80;;;;;;5094934;28;20451;-84
2022/05/19 05:11:16;;;;;;;8.37;5.00;;;18.40;81.10;;;;;;5091626;28;20460;-82
2022/05/19 05:13:43;;;;;;;5.80;4.00;;;18.70;80.40;;;;;;5093969;28;20447;-81
2022/05/19 05:16:10;;;;;;;7.00;4.90;;;18.80;80.90;;;;;;5094186;28;20502;-82
2022/05/19 05:18:36;;;;;;;10.50;4.80;;;19.10;75.90;;;;;;5089795;28;20455;-83
2022/05/19 05:21:06;;;;;;;7.40;4.50;;;19.10;76.00;;;;;;5095542;28;20451;-84
2022/05/19 05:23:32;;;;;;;6.90;4.00;;;19.20;70.80;;;;;;5094362;28;20880;-84
2022/05/19 05:26:01;;;;;;;8.53;4.87;;;19.30;71.40;;;;;;5092125;28;20456;-84
2022/05/19 05:28:27;;;;;;;10.23;4.73;;;19.30;74.70;;;;;;5091954;28;20799;-82
2022/05/19 05:31:00;;;;;;;6.73;4.70;;;19.50;70.50;;;;;;5095740;28;20457;-83
2022/05/19 05:33:42;;;;;;;13.13;6.23;;;19.40;69.60;;;;;;5093471;28;20457;-84
2022/05/19 05:36:09;;;;;;;8.47;6.00;;;19.50;72.40;;;;;;5093948;28;20450;-82
2022/05/19 05:38:36;;;;;;;7.80;5.07;;;19.70;69.80;;;;;;5091459;28;20475;-81
2022/05/19 05:41:04;;;;;;;14.03;5.73;;;19.70;68.30;;;;;;5091064;28;20458;-83
2022/05/19 05:43:31;;;;;;;8.87;4.60;;;19.60;67.10;;;;;;5092754;28;20448;-82
2022/05/19 05:46:05;;;;;;;8.27;4.87;;;19.70;65.90;;;;;;5093710;28;20521;-80
2022/05/19 05:48:36;;;;;;;7.10;4.83;;;19.70;67.40;;;;;;5102070;28;20473;-80
2022/05/19 05:51:03;;;;;;;8.83;4.93;;;19.80;66.40;;;;;;5104065;28;20503;-81
2022/05/19 05:53:30;;;;;;;11.27;5.77;;;19.80;65.50;;;;;;5100477;28;20456;-80
2022/05/19 05:55:56;;;;;;;6.00;4.60;;;19.80;67.00;;;;;;5102539;28;20847;-80
2022/05/19 05:58:25;;;;;;;9.87;6.27;;;20.00;65.00;;;;;;5104011;28;20451;-81
2022/05/19 06:00:52;;;;;;;7.70;4.70;;;20.50;61.00;;;;;;5103635;28;20426;-81
2022/05/19 06:03:18;;;;;;;9.53;5.00;;;21.00;56.00;;;;;;5105555;28;20802;-81
2022/05/19 06:05:45;;;;;;;9.70;5.40;;;21.30;54.40;;;;;;5103741;28;20446;-81
2022/05/19 06:08:12;;;;;;;7.70;4.83;;;21.80;54.10;;;;;;5104633;28;20493;-80
2022/05/19 06:10:39;;;;;;;9.60;5.53;;;21.90;55.00;;;;;;5105910;28;20446;-81
2022/05/19 06:13:06;;;;;;;10.57;4.90;;;22.00;53.10;;;;;;5102644;28;20455;-81
2022/05/19 06:15:34;;;;;;;10.93;5.30;;;22.50;55.20;;;;;;5098752;28;20910;-79
2022/05/19 06:18:01;;;;;;;8.53;3.80;;;22.80;51.80;;;;;;5098643;28;20478;-80
2022/05/19 06:20:28;;;;;;;8.23;4.70;;;23.30;47.40;;;;;;5096851;28;20453;-80
2022/05/19 06:22:55;;;;;;;11.30;4.80;;;23.80;43.40;;;;;;5097501;28;20873;-80
2022/05/19 06:25:24;;;;;;;8.37;4.07;;;24.70;39.70;;;;;;5096232;28;20510;-80
2022/05/19 06:27:51;;;;;;;7.37;3.70;;;25.30;38.90;;;;;;5097142;28;21016;-80
2022/05/19 06:30:20;;;;;;;7.77;4.37;;;25.40;31.00;;;;;;5096550;28;20445;-80
2022/05/19 06:32:48;;;;;;;13.23;5.00;;;25.80;31.20;;;;;;5097328;28;20457;-80
2022/05/19 06:35:19;;;;;;;8.47;3.90;;;26.00;28.30;;;;;;5097108;28;20453;-80
2022/05/19 06:37:46;;;;;;;8.10;4.03;;;26.10;25.90;;;;;;5099387;28;20993;-82
2022/05/19 06:40:15;;;;;;;7.60;4.17;;;26.20;25.00;;;;;;5096723;28;20453;-80
2022/05/19 06:42:42;;;;;;;7.43;4.57;;;26.20;23.90;;;;;;5092939;28;20444;-79
2022/05/19 06:45:10;;;;;;;8.77;4.30;;;26.10;23.90;;;;;;5077037;28;20457;-79
2022/05/19 06:47:37;;;;;;;7.90;4.50;;;25.90;24.20;;;;;;5076661;28;20478;-80
2022/05/19 06:50:08;;;;;;;9.23;3.87;;;25.80;25.50;;;;;;5076022;28;20432;-80
2022/05/19 06:52:43;;;;;;;8.87;4.27;;;25.80;24.80;;;;;;5076093;28;20906;-80
2022/05/19 06:55:10;;;;;;;9.47;4.43;;;25.50;27.80;;;;;;5076504;28;20428;-80
2022/05/19 06:57:37;;;;;;;7.23;4.63;;;25.50;26.40;;;;;;5076575;28;20481;-79
2022/05/19 07:00:06;;;;;;;9.37;4.17;;;25.40;26.00;;;;;;5075770;28;20454;-79
2022/05/19 07:02:33;;;;;;;6.13;3.43;;;25.30;26.30;;;;;;5077514;28;20450;-79
2022/05/19 07:05:00;;;;;;;7.23;4.17;;;25.40;27.20;;;;;;5075735;28;20450;-82
2022/05/19 07:07:28;;;;;;;10.10;3.23;;;25.60;27.00;;;;;;5076924;28;20478;-80
2022/05/19 07:09:55;;;;;;;7.70;4.03;;;25.80;25.30;;;;;;5075582;28;20429;-82
2022/05/19 07:12:23;;;;;;;8.87;3.73;;;25.90;24.50;;;;;;5076831;28;20457;-81
2022/05/19 07:14:50;;;;;;;8.47;3.57;;;26.30;22.50;;;;;;5077607;28;20431;-82
2022/05/19 07:17:17;;;;;;;9.20;4.40;;;26.60;20.70;;;;;;5076450;28;20596;-81
2022/05/19 07:22:33;;;;;;;12.17;4.10;;;27.00;20.50;;;;;;5076140;28;21512;-81
2022/05/19 07:25:01;;;;;;;10.30;4.27;;;27.00;20.60;;;;;;5073694;28;20454;-81
2022/05/19 07:27:28;;;;;;;7.00;4.00;;;26.90;19.80;;;;;;5074757;28;20488;-81
2022/05/19 07:29:55;;;;;;;9.30;4.07;;;26.80;18.00;;;;;;5075022;28;20451;-81
2022/05/19 07:32:22;;;;;;;7.87;3.90;;;26.20;19.50;;;;;;5074545;28;20428;-81
2022/05/19 07:34:49;;;;;;;8.30;3.90;;;25.90;20.50;;;;;;5074598;28;20462;-81
2022/05/19 07:37:16;;;;;;;8.17;4.60;;;25.60;23.60;;;;;;5075459;28;20470;-80
2022/05/19 07:39:44;;;;;;;7.57;4.43;;;25.50;24.10;;;;;;5076363;28;20973;-79
2022/05/19 07:42:11;;;;;;;10.13;4.07;;;25.60;23.60;;;;;;5076701;28;20461;-79
2022/05/19 07:44:38;;;;;;;11.03;4.33;;;25.60;22.80;;;;;;5074873;28;20943;-79
2022/05/19 07:47:05;;;;;;;6.83;3.77;;;25.60;23.60;;;;;;5085608;22;20999;-78
2022/05/19 07:49:32;;;;;;;9.60;4.10;;;25.80;23.80;;;;;;5053938;28;20451;-79
2022/05/19 07:51:59;;;;;;;12.33;4.30;;;25.80;23.70;;;;;;5055441;28;20459;-79
2022/05/19 07:54:28;;;;;;;7.17;4.07;;;25.90;23.80;;;;;;5055750;28;20466;-79
2022/05/19 07:56:56;;;;;;;7.07;4.03;;;25.90;23.90;;;;;;5056160;28;20490;-79
2022/05/19 07:59:24;;;;;;;8.80;3.90;;;25.90;27.60;;;;;;5054769;28;20485;-79
2022/05/19 08:01:51;;;;;;;9.50;4.27;;;26.30;25.60;;;;;;5056607;28;20451;-79
2022/05/19 08:04:18;;;;;;;7.40;4.20;;;26.60;26.20;;;;;;5057102;28;20459;-79
2022/05/19 08:06:46;;;;;;;7.30;4.40;;;26.40;24.10;;;;;;5055675;28;20475;-79
2022/05/19 08:11:59;;;;;;;12.20;3.53;;;26.20;23.90;;;;;;5056245;28;20441;-79
2022/05/19 08:17:10;;;;;;;7.60;3.57;;;27.10;24.30;;;;;;5057089;28;20497;-80
2022/05/19 08:19:37;;;;;;;7.47;3.80;;;27.50;17.20;;;;;;5055571;28;20829;-80
2022/05/19 08:22:05;;;;;;;9.13;4.17;;;27.80;17.30;;;;;;5056032;28;20459;-79
2022/05/19 08:24:31;;;;;;;9.33;4.20;;;28.20;15.10;;;;;;5056488;28;20450;-80
2022/05/19 08:27:00;;;;;;;9.40;3.70;;;28.40;12.80;;;;;;5056243;28;20478;-80
2022/05/19 08:29:27;;;;;;;8.10;3.70;;;28.70;10.70;;;;;;5055198;28;20438;-79
2022/05/19 08:31:55;;;;;;;14.63;4.43;;;29.00;10.30;;;;;;5054270;28;20459;-80
2022/05/19 08:34:22;;;;;;;8.97;4.00;;;29.40;8.10;;;;;;5056204;28;20426;-80
2022/05/19 08:36:50;;;;;;;8.43;3.57;;;29.50;7.00;;;;;;5055905;28;20471;-80
2022/05/19 08:39:18;;;;;;;9.53;3.67;;;29.70;5.80;;;;;;5055076;28;20454;-79
2022/05/19 08:41:50;;;;;;;7.57;3.10;;;29.50;4.90;;;;;;5056420;28;20460;-80
2022/05/19 08:44:24;;;;;;;7.40;3.50;;;29.50;5.20;;;;;;5056106;28;20430;-79
2022/05/19 08:46:53;;;;;;;6.63;3.63;;;29.80;4.50;;;;;;5055405;28;20461;-79
2022/05/19 08:49:25;;;;;;;8.43;3.70;;;29.80;4.80;;;;;;5055769;28;20429;-80
2022/05/19 08:51:57;;;;;;;7.10;3.87;;;30.20;3.10;;;;;;5055797;28;20430;-80
2022/05/19 08:54:25;;;;;;;8.57;3.50;;;30.40;3.20;;;;;;5055917;28;20459;-79
2022/05/19 08:56:59;;;;;;;7.10;3.60;;;30.80;1.90;;;;;;5056468;28;20471;-79
2022/05/19 08:59:37;;;;;;;8.20;3.40;;;30.70;1.00;;;;;;5054369;28;20436;-79
2022/05/19 09:02:07;;;;;;;6.57;3.90;;;31.10;3.50;;;;;;5055972;28;20422;-80
2022/05/19 09:04:45;;;;;;;6.80;3.87;;;31.10;2.60;;;;;;5056348;28;20451;-80
2022/05/19 09:10:14;;;;;;;13.67;4.40;;;31.50;1.50;;;;;;5055540;28;20418;-80
2022/05/19 09:12:44;;;;;;;7.37;3.93;;;31.70;1.50;;;;;;5046642;28;20459;-79
2022/05/19 09:15:12;;;;;;;6.80;4.10;;;31.80;1.00;;;;;;5045055;28;21027;-79
2022/05/19 09:17:43;;;;;;;9.83;3.73;;;31.90;1.00;;;;;;5047652;28;20472;-85
2022/05/19 09:20:13;;;;;;;7.80;3.70;;;31.60;1.00;;;;;;5056309;28;20504;-82
2022/05/19 09:22:40;;;;;;;9.57;3.60;;;31.90;1.00;;;;;;5057160;28;20454;-82
2022/05/19 09:25:11;;;;;;;8.93;4.47;;;32.20;1.00;;;;;;5046233;28;20448;-82
2022/05/19 09:27:40;;;;;;;9.83;3.83;;;32.00;1.00;;;;;;5043859;28;20538;-83
2022/05/19 09:30:28;;;;;;;8.13;3.77;;;32.10;1.00;;;;;;5041876;28;20459;-82
2022/05/19 09:32:56;;;;;;;6.90;3.57;;;32.10;1.00;;;;;;5043118;28;20646;-82
2022/05/19 09:35:26;;;;;;;7.97;3.70;;;32.50;1.00;;;;;;5045168;28;20801;-82
2022/05/19 09:38:06;;;;;;;9.40;4.80;;;32.70;1.00;;;;;;5044780;28;20520;-83
2022/05/19 09:40:38;;;;;;;8.37;3.87;;;32.40;1.00;;;;;;5044427;28;20451;-83
2022/05/19 09:43:12;;;;;;;7.43;4.20;;;32.60;1.00;;;;;;5045245;28;20463;-83
2022/05/19 09:45:44;;;;;;;7.93;4.23;;;32.00;1.00;;;;;;5045209;28;20455;-83
2022/05/19 09:48:12;;;;;;;11.63;3.80;;;31.70;1.00;;;;;;5044512;28;20463;-82
2022/05/19 09:50:44;;;;;;;7.10;3.50;;;32.00;1.00;;;;;;5049585;28;20423;-82
2022/05/19 09:53:17;;;;;;;7.60;4.23;;;32.30;1.00;;;;;;5049336;28;20920;-83
2022/05/19 09:55:46;;;;;;;7.47;4.10;;;32.40;1.00;;;;;;5047782;28;20431;-83
2022/05/19 09:58:17;;;;;;;6.70;3.63;;;33.10;1.00;;;;;;5045454;28;20439;-82
2022/05/19 10:00:53;;;;;;;10.17;3.93;;;33.10;1.00;;;;;;5047447;28;20430;-82
2022/05/19 10:03:24;;;;;;;6.20;3.60;;;32.80;1.00;;;;;;5047019;28;20430;-83
2022/05/19 10:05:55;;;;;;;8.20;3.80;;;33.10;1.00;;;;;;5047524;28;20471;-83
2022/05/19 10:08:26;;;;;;;7.43;3.93;;;33.60;1.00;;;;;;5045442;28;20469;-83
2022/05/19 10:11:04;;;;;;;10.03;3.87;;;33.30;1.00;;;;;;5047462;28;20448;-83
2022/05/19 10:13:37;;;;;;;9.50;3.50;;;33.60;1.00;;;;;;5047210;28;20427;-83
2022/05/19 10:16:14;;;;;;;7.53;3.70;;;33.70;1.00;;;;;;5046941;28;20430;-83
2022/05/19 10:19:02;;;;;;;6.50;3.33;;;33.70;1.00;;;;;;5045522;28;20478;-83
2022/05/19 10:21:42;;;;;;;5.90;3.03;;;34.10;1.00;;;;;;5045146;28;20518;-83
2022/05/19 10:24:26;;;;;;;11.83;3.50;;;34.20;1.00;;;;;;5044802;28;20451;-83
2022/05/19 10:32:52;;;;;;;7.27;3.60;;;34.40;1.00;;;;;;5045074;28;20455;-83
2022/05/19 10:35:28;;;;;;;6.07;3.13;;;34.60;1.00;;;;;;5044792;28;20462;-83
2022/05/19 10:38:09;;;;;;;5.73;3.20;;;34.50;1.00;;;;;;5044495;28;20513;-83
2022/05/19 10:40:50;;;;;;;5.83;3.00;;;34.80;1.00;;;;;;5041093;28;20429;-84
2022/05/19 10:43:30;;;;;;;6.37;3.40;;;35.10;1.00;;;;;;5041854;28;20460;-83
2022/05/19 10:46:01;;;;;;;14.87;3.50;;;35.20;1.00;;;;;;5042293;28;20422;-83
2022/05/19 10:48:57;;;;;;;5.10;2.60;;;35.10;1.00;;;;;;5038912;28;20476;-83
2022/05/19 10:51:35;;;;;;;6.10;3.30;;;36.20;1.00;;;;;;5040803;28;20444;-83
2022/05/19 10:54:29;;;;;;;6.70;3.57;;;36.40;1.00;;;;;;5042115;28;20433;-83
2022/05/19 10:57:47;;;;;;;7.37;2.97;;;36.10;1.00;;;;;;5044308;28;20438;-83
2022/05/19 11:00:19;;;;;;;7.20;3.57;;;36.00;1.00;;;;;;4943491;29;20956;-83
2022/05/19 11:03:20;;;;;;;6.80;3.37;;;35.60;1.00;;;;;;4941586;29;20419;-83
2022/05/19 11:06:02;;;;;;;5.50;3.10;;;35.00;1.00;;;;;;5012946;28;20475;-84
2022/05/19 11:08:42;;;;;;;5.40;3.27;;;35.40;1.00;;;;;;5041610;28;20458;-83
2022/05/19 11:11:18;;;;;;;6.70;3.57;;;33.70;1.00;;;;;;5043358;28;20478;-83
2022/05/19 11:13:56;;;;;;;8.90;3.60;;;33.60;1.00;;;;;;5043181;28;21118;-83
2022/05/19 11:16:36;;;;;;;7.50;2.97;;;33.30;1.00;;;;;;5042170;28;20493;-83
2022/05/19 11:19:13;;;;;;;9.63;3.43;;;33.80;1.00;;;;;;5041201;28;20427;-83
2022/05/19 11:21:45;;;;;;;9.33;3.30;;;34.30;1.00;;;;;;5038602;28;20834;-83
2022/05/19 11:24:21;;;;;;;5.50;3.10;;;34.70;1.00;;;;;;5038690;28;20433;-83
2022/05/19 11:26:54;;;;;;;7.80;3.00;;;34.50;1.00;;;;;;5039331;28;20454;-83
2022/05/19 11:29:28;;;;;;;5.63;2.80;;;35.40;1.00;;;;;;5037797;28;20454;-83
2022/05/19 11:32:03;;;;;;;8.20;3.20;;;35.10;1.00;;;;;;5045882;28;20832;-84
2022/05/19 11:34:36;;;;;;;7.00;2.60;;;34.50;1.00;;;;;;5058330;28;20457;-83
2022/05/19 11:37:14;;;;;;;6.80;3.63;;;33.90;1.00;;;;;;5059586;28;20442;-83
2022/05/19 11:39:53;;;;;;;7.00;3.23;;;34.20;1.00;;;;;;5059766;28;20467;-83
2022/05/19 11:42:28;;;;;;;8.07;3.20;;;33.50;1.00;;;;;;5061133;28;20425;-83
2022/05/19 11:44:55;;;;;;;10.80;3.50;;;33.10;1.00;;;;;;5058359;28;20454;-84
2022/05/19 11:55:57;;;;;;;6.20;3.37;;;33.80;1.00;;;;;;5066673;28;20442;-82
2022/05/19 11:58:26;;;;;;;6.73;3.07;;;34.50;1.00;;;;;;5066408;28;20823;-83
2022/05/19 12:00:58;;;;;;;8.93;3.33;;;35.50;1.00;;;;;;5066540;28;20627;-83
2022/05/19 12:03:34;;;;;;;7.90;3.40;;;35.90;1.00;;;;;;5066835;28;20430;-83
2022/05/19 12:06:04;;;;;;;6.00;3.23;;;36.10;1.00;;;;;;5066912;28;20443;-83
2022/05/19 12:08:36;;;;;;;5.50;3.17;;;36.10;1.00;;;;;;5064888;28;20506;-83
2022/05/19 12:11:18;;;;;;;7.47;3.30;;;36.10;1.00;;;;;;5065764;28;20437;-83
2022/05/19 12:13:48;;;;;;;8.77;3.30;;;36.30;1.00;;;;;;5058678;28;20429;-84
2022/05/19 12:16:18;;;;;;;7.53;3.63;;;36.30;1.00;;;;;;5056390;28;20460;-83
2022/05/19 12:19:01;;;;;;;5.60;2.90;;;36.10;1.00;;;;;;5063057;28;20448;-83
2022/05/19 12:21:40;;;;;;;10.50;3.47;;;35.90;1.00;;;;;;5062644;28;20429;-78
2022/05/19 12:24:11;;;;;;;6.10;3.30;;;35.30;1.00;;;;;;5060450;28;20433;-82
2022/05/19 12:26:50;;;;;;;7.50;3.53;;;34.90;1.00;;;;;;5055778;28;20555;-82
2022/05/19 12:29:28;;;;;;;5.97;3.13;;;35.20;1.00;;;;;;5054391;28;20446;-82
2022/05/19 12:31:59;;;;;;;6.80;3.47;;;34.80;1.00;;;;;;5055868;28;20438;-81
2022/05/19 12:34:31;;;;;;;6.13;3.40;;;34.90;1.00;;;;;;5055839;28;21064;-82
2022/05/19 12:37:09;;;;;;;5.87;3.73;;;34.90;1.00;;;;;;5055359;28;20446;-82
2022/05/19 12:39:45;;;;;;;7.20;3.07;;;34.20;1.00;;;;;;5054680;28;20422;-82
2022/05/19 12:42:18;;;;;;;19.60;4.10;;;33.50;1.00;;;;;;5056221;28;20960;-82
2022/05/19 12:44:47;;;;;;;7.60;3.60;;;32.70;1.00;;;;;;5056160;28;20532;-82
2022/05/19 12:47:20;;;;;;;7.40;3.33;;;32.10;1.00;;;;;;5055694;28;20870;-83
2022/05/19 12:50:27;;;;;;;6.20;3.60;;;31.70;1.00;;;;;;5052617;28;20453;-86
2022/05/19 12:52:59;;;;;;;7.33;3.57;;;31.30;1.00;;;;;;5045682;28;21180;-82
2022/05/19 12:55:46;;;;;;;11.73;4.23;;;30.60;1.00;;;;;;5066593;28;20457;-81
2022/05/19 12:58:48;;;;;;;7.20;4.10;;;30.40;1.00;;;;;;5065121;28;20474;-82
2022/05/19 13:01:21;;;;;;;5.93;3.80;;;29.90;1.00;;;;;;5066152;28;20425;-81
2022/05/19 13:03:52;;;;;;;9.53;4.13;;;29.40;1.00;;;;;;5064779;28;20430;-82
2022/05/19 13:06:22;;;;;;;15.60;4.43;;;29.00;1.00;;;;;;5066014;28;20538;-79
2022/05/19 13:08:53;;;;;;;105.73;11.63;;;28.20;1.30;;;;;;5061655;28;20504;-81
2022/05/19 13:11:29;;;;;;;165.47;21.37;;;25.50;1.00;;;;;;5059932;28;20663;-80
2022/05/19 13:14:00;;;;;;;21.53;4.80;;;23.50;8.80;;;;;;5058167;28;20490;-82
2022/05/19 13:16:29;;;;;;;12.33;2.57;;;19.90;99.20;;;;;;5057465;28;20461;-78
2022/05/19 13:19:01;;;;;;;17.70;14.00;;;18.20;99.90;;;;;;5055301;28;20455;-81
2022/05/19 13:21:34;;;;;;;31.17;29.47;;;18.40;99.90;;;;;;5056246;28;20467;-81
2022/05/19 13:24:06;;;;;;;98.90;94.77;;;18.30;99.90;;;;;;5055943;28;20862;-78
2022/05/19 13:26:36;;;;;;;111.57;107.17;;;18.80;99.90;;;;;;5056814;28;21064;-80
2022/05/19 13:31:55;;;;;;;159.27;153.97;;;18.60;99.90;;;;;;5063203;28;20438;-81
2022/05/19 13:34:24;;;;;;;73.03;70.33;;;18.50;99.90;;;;;;5042994;28;20481;-81
2022/05/19 13:36:55;;;;;;;48.07;45.87;;;18.60;99.90;;;;;;5043226;28;20472;-80
2022/05/19 13:39:22;;;;;;;132.30;127.60;;;18.60;99.90;;;;;;5041310;28;20448;-81
2022/05/19 13:41:53;;;;;;;166.83;161.37;;;18.70;99.90;;;;;;5038482;28;20452;-79
2022/05/19 13:44:38;;;;;;;264.83;256.70;;;18.50;99.90;;;;;;5039366;28;20460;-77
2022/05/19 13:47:11;;;;;;;381.77;369.33;;;18.40;99.90;;;;;;5063604;22;20480;-80
2022/05/19 13:49:38;;;;;;;359.57;347.17;;;18.40;99.90;;;;;;5051489;28;20483;-80
2022/05/19 13:52:08;;;;;;;326.93;316.53;;;18.20;99.90;;;;;;5051509;28;20458;-79
2022/05/19 13:54:42;;;;;;;419.77;405.40;;;18.20;99.90;;;;;;5050816;28;20460;-81
2022/05/19 13:57:24;;;;;;;270.10;261.43;;;18.00;99.90;;;;;;5057887;28;20983;-85
2022/05/19 13:59:53;;;;;;;279.87;271.47;;;18.00;99.90;;;;;;5077099;28;20444;-84